Carbondale, Illinois
Current Conditions -  °F | °C
As of 6:30 PM on Wednesday 24 Dec 2014 (Local Time) from KMDH Reporting Station
Overcast Overcast  
Wind Chill: 35°   Ceiling: 2500
Heat Index: 39°   Visibility: 10mi
Dew Point: 35°   Wind: 6mph
Humidity: 86%   Direction: 260°W
Pressure: 29.8"   Gusts: NA
Location:  37.73°N, 89.21°W
Report Text: KMDH 250030Z AUTO 26005KT 10SM FEW014 BKN025 OVC048 04/02 A2980 RMK AO2 RAE19 P0000 T00390017
Loading
Personal Weather Stations






























Interactive Weather Map New forecast layout! Learn more

10-Day Weather Forecast

Advertisements
Track Severe Weather on mobile